sensor_id;sensor_type;location;lat;lon;timestamp;P1;durP1;ratioP1;P2;durP2;ratioP2
13520;SDS011;6832;51.186;3.236;2024-02-04T00:02:03;53.90;;;19.67;;
13520;SDS011;6832;51.186;3.236;2024-02-04T00:04:32;61.00;;;18.40;;
13520;SDS011;6832;51.186;3.236;2024-02-04T00:06:59;59.80;;;19.50;;
13520;SDS011;6832;51.186;3.236;2024-02-04T00:09:26;43.50;;;14.30;;
13520;SDS011;6832;51.186;3.236;2024-02-04T00:11:54;50.97;;;14.23;;
13520;SDS011;6832;51.186;3.236;2024-02-04T00:14:21;44.77;;;14.53;;
13520;SDS011;6832;51.186;3.236;2024-02-04T00:16:48;47.17;;;13.43;;
13520;SDS011;6832;51.186;3.236;2024-02-04T00:19:16;78.57;;;16.23;;
13520;SDS011;6832;51.186;3.236;2024-02-04T00:21:43;59.57;;;15.53;;
13520;SDS011;6832;51.186;3.236;2024-02-04T00:24:10;113.67;;;17.23;;
13520;SDS011;6832;51.186;3.236;2024-02-04T00:26:37;62.27;;;15.03;;
13520;SDS011;6832;51.186;3.236;2024-02-04T00:29:04;42.63;;;13.67;;
13520;SDS011;6832;51.186;3.236;2024-02-04T00:31:31;46.13;;;13.50;;
13520;SDS011;6832;51.186;3.236;2024-02-04T00:33:57;43.73;;;13.70;;
13520;SDS011;6832;51.186;3.236;2024-02-04T00:36:27;72.60;;;14.97;;
13520;SDS011;6832;51.186;3.236;2024-02-04T00:38:54;88.20;;;15.47;;
13520;SDS011;6832;51.186;3.236;2024-02-04T00:41:20;53.87;;;14.27;;
13520;SDS011;6832;51.186;3.236;2024-02-04T00:43:47;52.53;;;14.80;;
13520;SDS011;6832;51.186;3.236;2024-02-04T00:46:14;58.43;;;14.93;;
13520;SDS011;6832;51.186;3.236;2024-02-04T00:48:41;56.93;;;15.20;;
13520;SDS011;6832;51.186;3.236;2024-02-04T00:51:08;62.37;;;15.77;;
13520;SDS011;6832;51.186;3.236;2024-02-04T00:53:37;88.63;;;17.77;;
13520;SDS011;6832;51.186;3.236;2024-02-04T00:56:04;55.13;;;15.07;;
13520;SDS011;6832;51.186;3.236;2024-02-04T00:58:32;69.47;;;16.67;;
13520;SDS011;6832;51.186;3.236;2024-02-04T01:00:59;63.47;;;14.80;;
13520;SDS011;6832;51.186;3.236;2024-02-04T01:03:26;41.20;;;14.13;;
13520;SDS011;6832;51.186;3.236;2024-02-04T01:05:53;54.80;;;14.93;;
13520;SDS011;6832;51.186;3.236;2024-02-04T01:08:20;57.73;;;15.47;;
13520;SDS011;6832;51.186;3.236;2024-02-04T01:10:49;53.87;;;15.40;;
13520;SDS011;6832;51.186;3.236;2024-02-04T01:13:16;66.07;;;18.57;;
13520;SDS011;6832;51.186;3.236;2024-02-04T01:15:44;69.73;;;19.33;;
13520;SDS011;6832;51.186;3.236;2024-02-04T01:18:11;77.63;;;20.33;;
13520;SDS011;6832;51.186;3.236;2024-02-04T01:20:39;65.23;;;25.20;;
13520;SDS011;6832;51.186;3.236;2024-02-04T01:23:06;52.10;;;18.07;;
13520;SDS011;6832;51.186;3.236;2024-02-04T01:25:34;61.37;;;19.23;;
13520;SDS011;6832;51.186;3.236;2024-02-04T01:28:02;58.57;;;19.17;;
13520;SDS011;6832;51.186;3.236;2024-02-04T01:30:29;85.40;;;24.73;;
13520;SDS011;6832;51.186;3.236;2024-02-04T01:32:56;56.80;;;19.40;;
13520;SDS011;6832;51.186;3.236;2024-02-04T01:35:23;91.83;;;21.83;;
13520;SDS011;6832;51.186;3.236;2024-02-04T01:37:50;114.77;;;18.20;;
13520;SDS011;6832;51.186;3.236;2024-02-04T01:40:17;61.60;;;13.93;;
13520;SDS011;6832;51.186;3.236;2024-02-04T01:42:44;64.87;;;12.83;;
13520;SDS011;6832;51.186;3.236;2024-02-04T01:45:12;54.27;;;13.00;;
13520;SDS011;6832;51.186;3.236;2024-02-04T01:47:39;60.93;;;14.93;;
13520;SDS011;6832;51.186;3.236;2024-02-04T01:50:07;57.57;;;12.87;;
13520;SDS011;6832;51.186;3.236;2024-02-04T01:52:35;56.03;;;12.97;;
13520;SDS011;6832;51.186;3.236;2024-02-04T01:55:04;45.50;;;12.00;;
13520;SDS011;6832;51.186;3.236;2024-02-04T01:57:31;66.83;;;15.00;;
13520;SDS011;6832;51.186;3.236;2024-02-04T02:00:00;63.83;;;13.87;;
13520;SDS011;6832;51.186;3.236;2024-02-04T02:02:28;59.73;;;13.40;;
13520;SDS011;6832;51.186;3.236;2024-02-04T02:04:57;58.90;;;13.33;;
13520;SDS011;6832;51.186;3.236;2024-02-04T02:07:24;59.03;;;14.27;;
13520;SDS011;6832;51.186;3.236;2024-02-04T02:09:52;69.03;;;13.33;;
13520;SDS011;6832;51.186;3.236;2024-02-04T02:12:21;64.70;;;12.93;;
13520;SDS011;6832;51.186;3.236;2024-02-04T02:14:53;55.17;;;12.37;;
13520;SDS011;6832;51.186;3.236;2024-02-04T02:17:28;60.07;;;13.97;;
13520;SDS011;6832;51.186;3.236;2024-02-04T02:20:02;59.73;;;14.00;;
13520;SDS011;6832;51.186;3.236;2024-02-04T02:22:38;59.70;;;13.63;;
13520;SDS011;6832;51.186;3.236;2024-02-04T02:25:13;66.50;;;13.13;;
13520;SDS011;6832;51.186;3.236;2024-02-04T02:27:45;72.53;;;13.40;;
13520;SDS011;6832;51.186;3.236;2024-02-04T02:30:13;68.33;;;13.17;;
13520;SDS011;6832;51.186;3.236;2024-02-04T02:32:41;73.97;;;13.57;;
13520;SDS011;6832;51.186;3.236;2024-02-04T02:35:09;60.67;;;14.67;;
13520;SDS011;6832;51.186;3.236;2024-02-04T02:37:39;60.97;;;14.07;;
13520;SDS011;6832;51.186;3.236;2024-02-04T02:40:10;53.73;;;13.60;;
13520;SDS011;6832;51.186;3.236;2024-02-04T02:42:43;63.27;;;14.07;;
13520;SDS011;6832;51.186;3.236;2024-02-04T02:45:13;56.87;;;14.30;;
13520;SDS011;6832;51.186;3.236;2024-02-04T02:47:41;62.73;;;13.97;;
13520;SDS011;6832;51.186;3.236;2024-02-04T02:50:10;61.60;;;14.60;;
13520;SDS011;6832;51.186;3.236;2024-02-04T02:52:38;98.30;;;16.50;;
13520;SDS011;6832;51.186;3.236;2024-02-04T02:55:05;64.60;;;15.27;;
13520;SDS011;6832;51.186;3.236;2024-02-04T02:57:34;55.10;;;14.07;;
13520;SDS011;6832;51.186;3.236;2024-02-04T03:00:01;70.97;;;14.30;;
13520;SDS011;6832;51.186;3.236;2024-02-04T03:02:28;62.30;;;13.63;;
13520;SDS011;6832;51.186;3.236;2024-02-04T03:04:55;61.47;;;15.03;;
13520;SDS011;6832;51.186;3.236;2024-02-04T03:07:22;58.93;;;14.27;;
13520;SDS011;6832;51.186;3.236;2024-02-04T03:09:49;74.07;;;14.93;;
13520;SDS011;6832;51.186;3.236;2024-02-04T03:12:17;61.00;;;13.37;;
13520;SDS011;6832;51.186;3.236;2024-02-04T03:14:45;64.70;;;14.83;;
13520;SDS011;6832;51.186;3.236;2024-02-04T03:17:12;60.17;;;13.63;;
13520;SDS011;6832;51.186;3.236;2024-02-04T03:19:39;64.40;;;13.70;;
13520;SDS011;6832;51.186;3.236;2024-02-04T03:22:06;56.27;;;13.93;;
13520;SDS011;6832;51.186;3.236;2024-02-04T03:24:33;54.20;;;13.40;;
13520;SDS011;6832;51.186;3.236;2024-02-04T03:27:00;66.27;;;14.13;;
13520;SDS011;6832;51.186;3.236;2024-02-04T03:29:27;64.20;;;13.70;;
13520;SDS011;6832;51.186;3.236;2024-02-04T03:31:56;60.53;;;14.73;;
13520;SDS011;6832;51.186;3.236;2024-02-04T03:34:23;56.93;;;15.33;;
13520;SDS011;6832;51.186;3.236;2024-02-04T03:36:50;59.97;;;12.73;;
13520;SDS011;6832;51.186;3.236;2024-02-04T03:39:17;50.87;;;13.07;;
13520;SDS011;6832;51.186;3.236;2024-02-04T03:41:44;58.83;;;13.50;;
13520;SDS011;6832;51.186;3.236;2024-02-04T03:44:11;61.50;;;14.10;;
13520;SDS011;6832;51.186;3.236;2024-02-04T03:46:38;84.53;;;16.13;;
13520;SDS011;6832;51.186;3.236;2024-02-04T03:49:07;60.30;;;13.57;;
13520;SDS011;6832;51.186;3.236;2024-02-04T03:51:34;62.10;;;14.83;;
13520;SDS011;6832;51.186;3.236;2024-02-04T03:54:02;59.30;;;12.90;;
13520;SDS011;6832;51.186;3.236;2024-02-04T03:56:29;62.67;;;13.60;;
13520;SDS011;6832;51.186;3.236;2024-02-04T03:58:56;55.23;;;14.90;;
13520;SDS011;6832;51.186;3.236;2024-02-04T04:01:23;56.83;;;13.87;;
13520;SDS011;6832;51.186;3.236;2024-02-04T04:03:50;62.20;;;13.67;;
13520;SDS011;6832;51.186;3.236;2024-02-04T04:06:18;58.57;;;13.80;;
13520;SDS011;6832;51.186;3.236;2024-02-04T04:08:45;54.80;;;14.03;;
13520;SDS011;6832;51.186;3.236;2024-02-04T04:11:12;66.73;;;15.43;;
13520;SDS011;6832;51.186;3.236;2024-02-04T04:13:38;57.37;;;13.60;;
13520;SDS011;6832;51.186;3.236;2024-02-04T04:16:06;62.70;;;14.30;;
13520;SDS011;6832;51.186;3.236;2024-02-04T04:18:33;49.93;;;13.03;;
13520;SDS011;6832;51.186;3.236;2024-02-04T04:21:00;75.93;;;14.83;;
13520;SDS011;6832;51.186;3.236;2024-02-04T04:23:29;48.70;;;13.57;;
13520;SDS011;6832;51.186;3.236;2024-02-04T04:25:56;59.77;;;14.10;;
13520;SDS011;6832;51.186;3.236;2024-02-04T04:28:23;52.40;;;13.73;;
13520;SDS011;6832;51.186;3.236;2024-02-04T04:30:49;57.00;;;13.77;;
13520;SDS011;6832;51.186;3.236;2024-02-04T04:33:16;71.80;;;13.73;;
13520;SDS011;6832;51.186;3.236;2024-02-04T04:35:44;57.87;;;12.87;;
13520;SDS011;6832;51.186;3.236;2024-02-04T04:38:11;71.57;;;14.57;;
13520;SDS011;6832;51.186;3.236;2024-02-04T04:40:39;46.77;;;13.00;;
13520;SDS011;6832;51.186;3.236;2024-02-04T04:43:06;63.37;;;13.77;;
13520;SDS011;6832;51.186;3.236;2024-02-04T04:45:33;52.20;;;13.20;;
13520;SDS011;6832;51.186;3.236;2024-02-04T04:48:00;53.27;;;13.87;;
13520;SDS011;6832;51.186;3.236;2024-02-04T04:50:27;72.00;;;14.40;;
13520;SDS011;6832;51.186;3.236;2024-02-04T04:52:54;61.40;;;13.13;;
13520;SDS011;6832;51.186;3.236;2024-02-04T04:55:21;52.00;;;13.97;;
13520;SDS011;6832;51.186;3.236;2024-02-04T04:57:49;61.53;;;12.97;;
13520;SDS011;6832;51.186;3.236;2024-02-04T05:00:17;56.27;;;13.47;;
13520;SDS011;6832;51.186;3.236;2024-02-04T05:02:45;64.17;;;13.57;;
13520;SDS011;6832;51.186;3.236;2024-02-04T05:05:13;62.10;;;14.70;;
13520;SDS011;6832;51.186;3.236;2024-02-04T05:07:40;62.13;;;15.37;;
13520;SDS011;6832;51.186;3.236;2024-02-04T05:10:07;49.53;;;12.80;;
13520;SDS011;6832;51.186;3.236;2024-02-04T05:12:35;66.67;;;14.53;;
13520;SDS011;6832;51.186;3.236;2024-02-04T05:15:04;57.93;;;12.77;;
13520;SDS011;6832;51.186;3.236;2024-02-04T05:17:32;65.07;;;14.80;;
13520;SDS011;6832;51.186;3.236;2024-02-04T05:20:00;71.13;;;14.17;;
13520;SDS011;6832;51.186;3.236;2024-02-04T05:22:28;55.20;;;13.73;;
13520;SDS011;6832;51.186;3.236;2024-02-04T05:24:55;51.97;;;13.70;;
13520;SDS011;6832;51.186;3.236;2024-02-04T05:27:22;54.23;;;12.67;;
13520;SDS011;6832;51.186;3.236;2024-02-04T05:29:49;55.07;;;13.17;;
13520;SDS011;6832;51.186;3.236;2024-02-04T05:32:17;49.83;;;13.13;;
13520;SDS011;6832;51.186;3.236;2024-02-04T05:34:44;56.47;;;12.63;;
13520;SDS011;6832;51.186;3.236;2024-02-04T05:37:11;56.97;;;14.30;;
13520;SDS011;6832;51.186;3.236;2024-02-04T05:39:38;63.97;;;13.93;;
13520;SDS011;6832;51.186;3.236;2024-02-04T05:42:05;46.80;;;12.50;;
13520;SDS011;6832;51.186;3.236;2024-02-04T05:44:32;73.70;;;15.03;;
13520;SDS011;6832;51.186;3.236;2024-02-04T05:46:59;54.80;;;13.40;;
13520;SDS011;6832;51.186;3.236;2024-02-04T05:49:27;52.47;;;14.53;;
13520;SDS011;6832;51.186;3.236;2024-02-04T05:51:54;62.80;;;12.37;;
13520;SDS011;6832;51.186;3.236;2024-02-04T05:54:21;49.37;;;12.47;;
13520;SDS011;6832;51.186;3.236;2024-02-04T05:56:48;48.60;;;13.50;;
13520;SDS011;6832;51.186;3.236;2024-02-04T05:59:15;58.47;;;13.63;;
13520;SDS011;6832;51.186;3.236;2024-02-04T06:01:42;80.67;;;15.00;;
13520;SDS011;6832;51.186;3.236;2024-02-04T06:04:10;54.93;;;12.47;;
13520;SDS011;6832;51.186;3.236;2024-02-04T06:06:38;64.80;;;14.93;;
13520;SDS011;6832;51.186;3.236;2024-02-04T06:09:05;57.50;;;14.17;;
13520;SDS011;6832;51.186;3.236;2024-02-04T06:11:33;90.20;;;14.73;;
13520;SDS011;6832;51.186;3.236;2024-02-04T06:14:03;59.23;;;12.83;;
13520;SDS011;6832;51.186;3.236;2024-02-04T06:16:30;62.73;;;13.97;;
13520;SDS011;6832;51.186;3.236;2024-02-04T06:18:59;66.73;;;14.03;;
13520;SDS011;6832;51.186;3.236;2024-02-04T06:21:26;51.23;;;14.87;;
13520;SDS011;6832;51.186;3.236;2024-02-04T06:23:54;59.10;;;13.37;;
13520;SDS011;6832;51.186;3.236;2024-02-04T06:26:21;53.93;;;12.37;;
13520;SDS011;6832;51.186;3.236;2024-02-04T06:28:48;58.30;;;13.20;;
13520;SDS011;6832;51.186;3.236;2024-02-04T06:31:16;48.23;;;12.60;;
13520;SDS011;6832;51.186;3.236;2024-02-04T06:33:43;55.00;;;12.57;;
13520;SDS011;6832;51.186;3.236;2024-02-04T06:36:10;56.60;;;13.23;;
13520;SDS011;6832;51.186;3.236;2024-02-04T06:38:37;57.83;;;13.30;;
13520;SDS011;6832;51.186;3.236;2024-02-04T06:41:05;63.60;;;12.70;;
13520;SDS011;6832;51.186;3.236;2024-02-04T06:43:32;50.40;;;12.50;;
13520;SDS011;6832;51.186;3.236;2024-02-04T06:45:59;60.17;;;14.17;;
13520;SDS011;6832;51.186;3.236;2024-02-04T06:48:26;56.07;;;12.50;;
13520;SDS011;6832;51.186;3.236;2024-02-04T06:50:53;53.77;;;13.67;;
13520;SDS011;6832;51.186;3.236;2024-02-04T06:53:20;54.83;;;12.93;;
13520;SDS011;6832;51.186;3.236;2024-02-04T06:55:47;58.47;;;13.70;;
13520;SDS011;6832;51.186;3.236;2024-02-04T06:58:15;55.83;;;15.00;;
13520;SDS011;6832;51.186;3.236;2024-02-04T07:00:42;51.43;;;12.27;;
13520;SDS011;6832;51.186;3.236;2024-02-04T07:03:09;54.10;;;13.93;;
13520;SDS011;6832;51.186;3.236;2024-02-04T07:05:36;55.33;;;14.37;;
13520;SDS011;6832;51.186;3.236;2024-02-04T07:08:03;57.87;;;15.20;;
13520;SDS011;6832;51.186;3.236;2024-02-04T07:10:30;48.73;;;15.50;;
13520;SDS011;6832;51.186;3.236;2024-02-04T07:12:57;64.30;;;17.00;;
13520;SDS011;6832;51.186;3.236;2024-02-04T07:15:25;56.73;;;17.73;;
13520;SDS011;6832;51.186;3.236;2024-02-04T07:17:52;56.97;;;16.73;;
13520;SDS011;6832;51.186;3.236;2024-02-04T07:20:19;58.83;;;17.43;;
13520;SDS011;6832;51.186;3.236;2024-02-04T07:22:46;63.80;;;19.33;;
13520;SDS011;6832;51.186;3.236;2024-02-04T07:25:13;51.87;;;18.23;;
13520;SDS011;6832;51.186;3.236;2024-02-04T07:27:40;70.27;;;18.07;;
13520;SDS011;6832;51.186;3.236;2024-02-04T07:30:07;70.77;;;19.63;;
13520;SDS011;6832;51.186;3.236;2024-02-04T07:32:36;51.07;;;16.83;;
13520;SDS011;6832;51.186;3.236;2024-02-04T07:35:03;56.50;;;18.63;;
13520;SDS011;6832;51.186;3.236;2024-02-04T07:37:31;55.83;;;19.23;;
13520;SDS011;6832;51.186;3.236;2024-02-04T07:39:58;64.17;;;19.10;;
13520;SDS011;6832;51.186;3.236;2024-02-04T07:42:26;52.33;;;17.80;;
13520;SDS011;6832;51.186;3.236;2024-02-04T07:44:53;73.43;;;20.00;;
13520;SDS011;6832;51.186;3.236;2024-02-04T07:47:20;54.83;;;19.70;;
13520;SDS011;6832;51.186;3.236;2024-02-04T07:49:48;63.77;;;19.13;;
13520;SDS011;6832;51.186;3.236;2024-02-04T07:52:15;53.67;;;19.53;;
13520;SDS011;6832;51.186;3.236;2024-02-04T07:54:43;50.30;;;17.27;;
13520;SDS011;6832;51.186;3.236;2024-02-04T07:57:10;69.40;;;19.83;;
13520;SDS011;6832;51.186;3.236;2024-02-04T07:59:38;61.53;;;19.70;;
13520;SDS011;6832;51.186;3.236;2024-02-04T08:02:05;46.13;;;18.03;;
13520;SDS011;6832;51.186;3.236;2024-02-04T08:04:32;56.30;;;18.80;;
13520;SDS011;6832;51.186;3.236;2024-02-04T08:07:00;64.60;;;19.37;;
13520;SDS011;6832;51.186;3.236;2024-02-04T08:09:28;58.30;;;18.70;;
13520;SDS011;6832;51.186;3.236;2024-02-04T08:11:55;58.10;;;19.13;;
13520;SDS011;6832;51.186;3.236;2024-02-04T08:14:22;62.60;;;18.93;;
13520;SDS011;6832;51.186;3.236;2024-02-04T08:16:49;57.60;;;19.83;;
13520;SDS011;6832;51.186;3.236;2024-02-04T08:19:16;68.37;;;21.20;;
13520;SDS011;6832;51.186;3.236;2024-02-04T08:21:43;63.07;;;19.03;;
13520;SDS011;6832;51.186;3.236;2024-02-04T08:24:11;62.10;;;20.23;;
13520;SDS011;6832;51.186;3.236;2024-02-04T08:26:38;66.37;;;20.23;;
13520;SDS011;6832;51.186;3.236;2024-02-04T08:29:05;51.33;;;18.60;;
13520;SDS011;6832;51.186;3.236;2024-02-04T08:31:32;62.50;;;19.50;;
13520;SDS011;6832;51.186;3.236;2024-02-04T08:33:59;57.53;;;19.43;;
13520;SDS011;6832;51.186;3.236;2024-02-04T08:36:27;76.13;;;22.07;;
13520;SDS011;6832;51.186;3.236;2024-02-04T08:38:56;56.73;;;17.63;;
13520;SDS011;6832;51.186;3.236;2024-02-04T08:41:24;61.27;;;18.67;;
13520;SDS011;6832;51.186;3.236;2024-02-04T08:43:51;76.70;;;20.63;;
13520;SDS011;6832;51.186;3.236;2024-02-04T08:46:18;65.27;;;20.17;;
13520;SDS011;6832;51.186;3.236;2024-02-04T08:48:45;53.37;;;18.53;;
13520;SDS011;6832;51.186;3.236;2024-02-04T08:51:12;74.60;;;20.50;;
13520;SDS011;6832;51.186;3.236;2024-02-04T08:53:41;83.47;;;20.87;;
13520;SDS011;6832;51.186;3.236;2024-02-04T08:56:08;57.90;;;19.47;;
13520;SDS011;6832;51.186;3.236;2024-02-04T08:58:36;66.33;;;20.20;;
13520;SDS011;6832;51.186;3.236;2024-02-04T09:01:03;53.53;;;19.13;;
13520;SDS011;6832;51.186;3.236;2024-02-04T09:03:31;92.10;;;21.50;;
13520;SDS011;6832;51.186;3.236;2024-02-04T09:05:59;56.57;;;20.73;;
13520;SDS011;6832;51.186;3.236;2024-02-04T09:08:25;66.77;;;19.37;;
13520;SDS011;6832;51.186;3.236;2024-02-04T09:10:52;55.67;;;19.53;;
13520;SDS011;6832;51.186;3.236;2024-02-04T09:13:19;68.43;;;20.77;;
13520;SDS011;6832;51.186;3.236;2024-02-04T09:15:48;68.93;;;21.33;;
13520;SDS011;6832;51.186;3.236;2024-02-04T09:18:15;81.87;;;20.17;;
13520;SDS011;6832;51.186;3.236;2024-02-04T09:20:42;61.83;;;19.90;;
13520;SDS011;6832;51.186;3.236;2024-02-04T09:23:09;56.37;;;18.90;;
13520;SDS011;6832;51.186;3.236;2024-02-04T09:25:37;59.33;;;21.50;;
13520;SDS011;6832;51.186;3.236;2024-02-04T09:28:04;56.63;;;19.93;;
13520;SDS011;6832;51.186;3.236;2024-02-04T09:30:31;58.17;;;19.43;;
13520;SDS011;6832;51.186;3.236;2024-02-04T09:32:59;52.10;;;19.23;;
13520;SDS011;6832;51.186;3.236;2024-02-04T09:35:26;70.53;;;21.07;;
13520;SDS011;6832;51.186;3.236;2024-02-04T09:37:54;60.00;;;19.90;;
13520;SDS011;6832;51.186;3.236;2024-02-04T09:40:21;59.47;;;17.07;;
13520;SDS011;6832;51.186;3.236;2024-02-04T09:42:48;65.20;;;18.17;;
13520;SDS011;6832;51.186;3.236;2024-02-04T09:45:17;52.37;;;19.83;;
13520;SDS011;6832;51.186;3.236;2024-02-04T09:47:44;48.87;;;18.07;;
13520;SDS011;6832;51.186;3.236;2024-02-04T09:50:13;54.80;;;19.07;;
13520;SDS011;6832;51.186;3.236;2024-02-04T09:52:40;59.43;;;19.80;;
13520;SDS011;6832;51.186;3.236;2024-02-04T09:55:13;60.13;;;20.47;;
13520;SDS011;6832;51.186;3.236;2024-02-04T09:57:42;53.90;;;18.27;;
13520;SDS011;6832;51.186;3.236;2024-02-04T10:00:11;47.23;;;19.53;;
13520;SDS011;6832;51.186;3.236;2024-02-04T10:02:39;56.80;;;19.37;;
13520;SDS011;6832;51.186;3.236;2024-02-04T10:05:07;56.57;;;19.23;;
13520;SDS011;6832;51.186;3.236;2024-02-04T10:07:37;60.00;;;19.77;;
13520;SDS011;6832;51.186;3.236;2024-02-04T10:10:05;84.50;;;21.37;;
13520;SDS011;6832;51.186;3.236;2024-02-04T10:12:33;54.50;;;18.83;;
13520;SDS011;6832;51.186;3.236;2024-02-04T10:15:01;57.17;;;19.90;;
13520;SDS011;6832;51.186;3.236;2024-02-04T10:17:29;116.57;;;22.80;;
13520;SDS011;6832;51.186;3.236;2024-02-04T10:19:57;68.00;;;19.93;;
13520;SDS011;6832;51.186;3.236;2024-02-04T10:22:25;55.47;;;18.70;;
13520;SDS011;6832;51.186;3.236;2024-02-04T10:24:54;55.27;;;19.73;;
13520;SDS011;6832;51.186;3.236;2024-02-04T10:27:32;53.93;;;20.17;;
13520;SDS011;6832;51.186;3.236;2024-02-04T10:29:59;78.47;;;20.27;;
13520;SDS011;6832;51.186;3.236;2024-02-04T10:32:26;69.17;;;19.77;;
13520;SDS011;6832;51.186;3.236;2024-02-04T10:34:53;53.00;;;19.73;;
13520;SDS011;6832;51.186;3.236;2024-02-04T10:37:20;60.17;;;19.27;;
13520;SDS011;6832;51.186;3.236;2024-02-04T10:39:47;57.17;;;19.23;;
13520;SDS011;6832;51.186;3.236;2024-02-04T10:42:16;53.07;;;18.73;;
13520;SDS011;6832;51.186;3.236;2024-02-04T10:44:47;52.57;;;19.33;;
13520;SDS011;6832;51.186;3.236;2024-02-04T10:47:17;58.03;;;18.40;;
13520;SDS011;6832;51.186;3.236;2024-02-04T10:49:50;70.37;;;19.10;;
13520;SDS011;6832;51.186;3.236;2024-02-04T10:52:19;59.30;;;18.97;;
13520;SDS011;6832;51.186;3.236;2024-02-04T10:54:48;58.93;;;19.80;;
13520;SDS011;6832;51.186;3.236;2024-02-04T10:57:19;61.13;;;19.40;;
13520;SDS011;6832;51.186;3.236;2024-02-04T10:59:48;64.47;;;19.87;;
13520;SDS011;6832;51.186;3.236;2024-02-04T11:02:15;53.00;;;19.03;;
13520;SDS011;6832;51.186;3.236;2024-02-04T11:04:42;55.03;;;19.37;;
13520;SDS011;6832;51.186;3.236;2024-02-04T11:07:10;99.40;;;22.50;;
13520;SDS011;6832;51.186;3.236;2024-02-04T11:09:39;64.63;;;19.47;;
13520;SDS011;6832;51.186;3.236;2024-02-04T11:12:08;57.77;;;19.30;;
13520;SDS011;6832;51.186;3.236;2024-02-04T11:14:40;54.50;;;19.10;;
13520;SDS011;6832;51.186;3.236;2024-02-04T11:17:23;65.67;;;19.83;;
13520;SDS011;6832;51.186;3.236;2024-02-04T11:20:07;67.63;;;19.97;;
13520;SDS011;6832;51.186;3.236;2024-02-04T11:22:48;49.30;;;19.10;;
13520;SDS011;6832;51.186;3.236;2024-02-04T11:25:44;61.83;;;21.03;;
13520;SDS011;6832;51.186;3.236;2024-02-04T11:28:13;71.73;;;20.50;;
13520;SDS011;6832;51.186;3.236;2024-02-04T11:30:43;81.57;;;21.83;;
13520;SDS011;6832;51.186;3.236;2024-02-04T11:33:11;57.17;;;19.10;;
13520;SDS011;6832;51.186;3.236;2024-02-04T11:35:39;61.33;;;19.73;;
13520;SDS011;6832;51.186;3.236;2024-02-04T11:38:06;61.87;;;19.43;;
13520;SDS011;6832;51.186;3.236;2024-02-04T11:40:34;57.87;;;18.17;;
13520;SDS011;6832;51.186;3.236;2024-02-04T11:43:05;82.57;;;21.73;;
13520;SDS011;6832;51.186;3.236;2024-02-04T11:45:32;59.47;;;20.13;;
13520;SDS011;6832;51.186;3.236;2024-02-04T11:48:06;73.00;;;21.00;;
13520;SDS011;6832;51.186;3.236;2024-02-04T11:50:35;41.53;;;17.57;;
13520;SDS011;6832;51.186;3.236;2024-02-04T11:53:04;55.07;;;19.93;;
13520;SDS011;6832;51.186;3.236;2024-02-04T11:55:33;56.60;;;19.33;;
13520;SDS011;6832;51.186;3.236;2024-02-04T11:58:01;49.10;;;20.00;;
13520;SDS011;6832;51.186;3.236;2024-02-04T12:00:28;109.07;;;22.40;;
13520;SDS011;6832;51.186;3.236;2024-02-04T12:03:01;58.37;;;28.80;;
13520;SDS011;6832;51.186;3.236;2024-02-04T12:05:30;72.73;;;20.63;;
13520;SDS011;6832;51.186;3.236;2024-02-04T12:07:59;64.63;;;19.60;;
13520;SDS011;6832;51.186;3.236;2024-02-04T12:10:27;71.87;;;22.13;;
13520;SDS011;6832;51.186;3.236;2024-02-04T12:12:55;60.13;;;19.47;;
13520;SDS011;6832;51.186;3.236;2024-02-04T12:15:22;75.50;;;20.80;;
13520;SDS011;6832;51.186;3.236;2024-02-04T12:17:50;63.63;;;20.13;;
13520;SDS011;6832;51.186;3.236;2024-02-04T12:20:17;62.87;;;22.93;;
13520;SDS011;6832;51.186;3.236;2024-02-04T12:22:45;54.83;;;19.03;;
13520;SDS011;6832;51.186;3.236;2024-02-04T12:25:14;55.37;;;18.57;;
13520;SDS011;6832;51.186;3.236;2024-02-04T12:27:41;66.93;;;20.40;;
13520;SDS011;6832;51.186;3.236;2024-02-04T12:30:08;56.37;;;20.23;;
13520;SDS011;6832;51.186;3.236;2024-02-04T12:32:35;57.27;;;23.10;;
13520;SDS011;6832;51.186;3.236;2024-02-04T12:35:03;76.27;;;19.33;;
13520;SDS011;6832;51.186;3.236;2024-02-04T12:37:31;55.87;;;19.33;;
13520;SDS011;6832;51.186;3.236;2024-02-04T12:40:00;78.37;;;21.60;;
13520;SDS011;6832;51.186;3.236;2024-02-04T12:42:28;64.63;;;19.50;;
13520;SDS011;6832;51.186;3.236;2024-02-04T12:44:56;65.47;;;21.13;;
13520;SDS011;6832;51.186;3.236;2024-02-04T12:47:23;56.50;;;19.73;;
13520;SDS011;6832;51.186;3.236;2024-02-04T12:49:57;85.63;;;23.23;;
13520;SDS011;6832;51.186;3.236;2024-02-04T12:52:25;61.87;;;22.77;;
13520;SDS011;6832;51.186;3.236;2024-02-04T12:54:51;71.33;;;37.73;;
13520;SDS011;6832;51.186;3.236;2024-02-04T12:57:24;58.97;;;19.33;;
13520;SDS011;6832;51.186;3.236;2024-02-04T12:59:51;79.03;;;20.23;;
13520;SDS011;6832;51.186;3.236;2024-02-04T13:02:18;63.33;;;18.60;;
13520;SDS011;6832;51.186;3.236;2024-02-04T13:04:46;58.83;;;18.40;;
13520;SDS011;6832;51.186;3.236;2024-02-04T13:07:13;61.17;;;19.93;;
13520;SDS011;6832;51.186;3.236;2024-02-04T13:09:42;91.57;;;21.77;;
13520;SDS011;6832;51.186;3.236;2024-02-04T13:12:10;93.93;;;28.80;;
13520;SDS011;6832;51.186;3.236;2024-02-04T13:14:39;84.30;;;22.00;;
13520;SDS011;6832;51.186;3.236;2024-02-04T13:17:07;55.43;;;19.77;;
13520;SDS011;6832;51.186;3.236;2024-02-04T13:19:35;49.57;;;19.47;;
13520;SDS011;6832;51.186;3.236;2024-02-04T13:22:03;56.63;;;19.00;;
13520;SDS011;6832;51.186;3.236;2024-02-04T13:24:30;65.10;;;22.10;;
13520;SDS011;6832;51.186;3.236;2024-02-04T13:26:57;65.13;;;20.27;;
13520;SDS011;6832;51.186;3.236;2024-02-04T13:29:25;63.53;;;18.63;;
13520;SDS011;6832;51.186;3.236;2024-02-04T13:31:54;63.87;;;20.57;;
13520;SDS011;6832;51.186;3.236;2024-02-04T13:34:21;55.40;;;19.97;;
13520;SDS011;6832;51.186;3.236;2024-02-04T13:36:48;74.33;;;20.23;;
13520;SDS011;6832;51.186;3.236;2024-02-04T13:39:16;66.53;;;18.80;;
13520;SDS011;6832;51.186;3.236;2024-02-04T13:41:43;66.37;;;19.53;;
13520;SDS011;6832;51.186;3.236;2024-02-04T13:44:10;61.73;;;19.67;;
13520;SDS011;6832;51.186;3.236;2024-02-04T13:46:37;58.17;;;18.23;;
13520;SDS011;6832;51.186;3.236;2024-02-04T13:49:08;75.17;;;19.40;;
13520;SDS011;6832;51.186;3.236;2024-02-04T13:51:37;60.77;;;19.60;;
13520;SDS011;6832;51.186;3.236;2024-02-04T13:54:04;77.87;;;20.77;;
13520;SDS011;6832;51.186;3.236;2024-02-04T13:56:30;61.00;;;20.43;;
13520;SDS011;6832;51.186;3.236;2024-02-04T13:58:58;84.90;;;19.87;;
13520;SDS011;6832;51.186;3.236;2024-02-04T14:01:26;60.30;;;18.73;;
13520;SDS011;6832;51.186;3.236;2024-02-04T14:03:53;68.23;;;19.53;;
13520;SDS011;6832;51.186;3.236;2024-02-04T14:06:22;57.23;;;18.67;;
13520;SDS011;6832;51.186;3.236;2024-02-04T14:08:49;63.83;;;19.13;;
13520;SDS011;6832;51.186;3.236;2024-02-04T14:11:15;55.80;;;18.40;;
13520;SDS011;6832;51.186;3.236;2024-02-04T14:13:42;63.67;;;20.40;;
13520;SDS011;6832;51.186;3.236;2024-02-04T14:16:09;81.17;;;24.97;;
13520;SDS011;6832;51.186;3.236;2024-02-04T14:18:36;64.37;;;17.97;;
13520;SDS011;6832;51.186;3.236;2024-02-04T14:21:05;92.20;;;20.70;;
13520;SDS011;6832;51.186;3.236;2024-02-04T14:23:36;54.77;;;17.77;;
13520;SDS011;6832;51.186;3.236;2024-02-04T14:26:03;93.90;;;22.03;;
13520;SDS011;6832;51.186;3.236;2024-02-04T14:28:33;57.67;;;19.10;;
13520;SDS011;6832;51.186;3.236;2024-02-04T14:31:06;70.77;;;18.33;;
13520;SDS011;6832;51.186;3.236;2024-02-04T14:33:33;64.90;;;24.83;;
13520;SDS011;6832;51.186;3.236;2024-02-04T14:35:59;58.93;;;19.30;;
13520;SDS011;6832;51.186;3.236;2024-02-04T14:38:26;71.70;;;19.90;;